createdAt,value
2018-05-13T00:00:25.435Z,12.80
2018-05-13T00:05:24.499Z,12.93
2018-05-13T00:07:53.715Z,11.77
2018-05-13T00:10:21.273Z,11.70
2018-05-13T00:12:49.594Z,10.93
2018-05-13T00:15:17.225Z,12.23
2018-05-13T00:17:44.750Z,12.13
2018-05-13T00:20:12.316Z,12.50
2018-05-13T00:22:40.604Z,12.30
2018-05-13T00:25:09.012Z,13.63
2018-05-13T00:27:37.106Z,13.17
2018-05-13T00:30:04.704Z,14.10
2018-05-13T00:32:32.309Z,12.80
2018-05-13T00:34:59.864Z,13.33
2018-05-13T00:37:27.387Z,13.10
2018-05-13T00:39:55.676Z,12.50
2018-05-13T00:42:23.241Z,12.65
2018-05-13T00:44:50.943Z,13.33
2018-05-13T00:47:18.520Z,13.93
2018-05-13T00:49:46.403Z,12.13
2018-05-13T00:52:26.598Z,12.75
2018-05-13T01:08:10.999Z,14.67
2018-05-13T01:10:39.278Z,13.33
2018-05-13T01:13:07.566Z,13.30
2018-05-13T01:15:35.106Z,13.90
2018-05-13T01:18:02.626Z,12.90
2018-05-13T01:20:30.164Z,15.60
2018-05-13T01:22:57.716Z,14.83
2018-05-13T01:25:25.243Z,13.93
2018-05-13T01:27:53.544Z,13.65
2018-05-13T01:30:21.585Z,15.00
2018-05-13T01:32:49.909Z,16.10
2018-05-13T01:35:17.885Z,15.10
2018-05-13T01:37:45.419Z,14.87
2018-05-13T01:40:14.498Z,15.55
2018-05-13T01:42:42.786Z,15.73
2018-05-13T01:45:10.399Z,16.10
2018-05-13T01:47:38.718Z,14.23
2018-05-13T01:50:06.258Z,15.90
2018-05-13T01:52:35.294Z,15.85
2018-05-13T01:55:02.830Z,15.67
2018-05-13T01:57:30.490Z,13.40
2018-05-13T01:59:58.047Z,14.77
2018-05-13T02:02:25.576Z,13.48
2018-05-13T02:04:53.103Z,13.33
2018-05-13T02:07:20.655Z,14.90
2018-05-13T02:09:48.891Z,14.07
2018-05-13T02:12:16.496Z,14.70
2018-05-13T02:14:44.550Z,14.60
2018-05-13T02:17:12.135Z,15.30
2018-05-13T02:19:39.679Z,14.50
2018-05-13T02:22:07.241Z,14.07
2018-05-13T02:24:34.764Z,14.37
2018-05-13T02:27:03.164Z,13.60
2018-05-13T02:29:30.717Z,14.23
2018-05-13T02:31:58.239Z,14.60
2018-05-13T02:34:26.530Z,13.50
2018-05-13T02:36:54.543Z,13.50
2018-05-13T02:39:22.067Z,14.63
2018-05-13T02:41:49.590Z,15.15
2018-05-13T02:44:17.155Z,14.07
2018-05-13T02:46:44.687Z,13.27
2018-05-13T02:49:12.199Z,15.10
2018-05-13T02:51:39.757Z,14.40
2018-05-13T02:54:07.275Z,15.00
2018-05-13T02:56:34.816Z,14.65
2018-05-13T02:59:02.636Z,14.27
2018-05-13T03:01:30.155Z,13.37
2018-05-13T03:03:57.679Z,14.03
2018-05-13T03:06:25.234Z,12.80
2018-05-13T03:08:52.778Z,13.77
2018-05-13T03:11:20.765Z,14.65
2018-05-13T03:13:48.318Z,13.60
2018-05-13T03:16:17.914Z,14.28
2018-05-13T03:18:45.435Z,13.95
2018-05-13T03:21:15.836Z,14.15
2018-05-13T03:23:43.366Z,12.27
2018-05-13T03:26:10.885Z,13.43
2018-05-13T03:28:38.439Z,13.57
2018-05-13T03:31:05.960Z,13.63
2018-05-13T03:33:33.475Z,12.87
2018-05-13T03:36:01.794Z,14.30
2018-05-13T03:38:29.308Z,13.80
2018-05-13T03:40:57.605Z,13.63
2018-05-13T03:43:25.495Z,13.40
2018-05-13T03:45:53.039Z,13.20
2018-05-13T03:48:20.556Z,14.30
2018-05-13T03:50:48.878Z,13.90
2018-05-13T03:53:17.760Z,13.30
2018-05-13T03:55:45.290Z,14.70
2018-05-13T03:58:13.782Z,15.27
2018-05-13T04:00:41.310Z,15.23
2018-05-13T04:03:08.839Z,15.18
2018-05-13T04:05:36.992Z,14.97
2018-05-13T04:21:43.978Z,16.03
2018-05-13T04:24:11.495Z,15.55
2018-05-13T04:26:39.023Z,14.03
2018-05-13T04:29:07.338Z,13.87
2018-05-13T04:31:34.855Z,15.10
2018-05-13T04:34:02.393Z,14.63
2018-05-13T04:36:30.714Z,15.00
2018-05-13T04:38:59.021Z,15.30
2018-05-13T04:41:26.571Z,16.40
2018-05-13T04:43:54.527Z,14.83
2018-05-13T04:46:22.077Z,15.33
2018-05-13T04:48:49.624Z,16.50
2018-05-13T04:51:18.023Z,16.17
2018-05-13T04:53:45.665Z,14.03
2018-05-13T04:56:25.654Z,16.20
2018-05-13T05:07:44.126Z,16.03
2018-05-13T05:10:11.698Z,15.40
2018-05-13T05:12:39.304Z,14.67
2018-05-13T05:15:06.867Z,14.90
2018-05-13T05:17:34.448Z,16.50
2018-05-13T05:20:02.742Z,15.30
2018-05-13T05:22:31.777Z,16.10
2018-05-13T05:24:59.298Z,16.50
2018-05-13T05:27:27.589Z,15.30
2018-05-13T05:29:55.583Z,15.93
2018-05-13T05:32:23.189Z,16.37
2018-05-13T05:34:51.525Z,14.60
2018-05-13T05:37:19.086Z,15.65
2018-05-13T05:39:46.611Z,12.47
2018-05-13T05:42:25.983Z,15.07
2018-05-13T05:57:49.458Z,13.67
2018-05-13T06:00:16.975Z,13.18
2018-05-13T06:02:44.510Z,11.95
2018-05-13T06:05:12.071Z,12.77
2018-05-13T06:07:39.604Z,11.47
2018-05-13T06:10:08.016Z,12.80
2018-05-13T06:12:35.705Z,11.70
2018-05-13T06:15:04.108Z,11.40
2018-05-13T06:17:31.634Z,11.37
2018-05-13T06:19:59.211Z,10.67
2018-05-13T06:22:26.804Z,10.57
2018-05-13T06:24:55.922Z,10.50
2018-05-13T06:27:23.467Z,11.40
2018-05-13T06:29:51.746Z,10.73
2018-05-13T06:32:19.270Z,11.17
2018-05-13T06:34:47.298Z,11.37
2018-05-13T06:37:16.566Z,11.75
2018-05-13T06:39:44.459Z,11.67
2018-05-13T06:42:12.451Z,12.00
2018-05-13T06:44:40.765Z,11.43
2018-05-13T06:47:09.077Z,13.23
2018-05-13T06:49:36.680Z,12.70
2018-05-13T06:52:04.210Z,13.33
2018-05-13T06:54:31.762Z,12.40
2018-05-13T06:56:59.326Z,12.63
2018-05-13T06:59:26.881Z,13.15
2018-05-13T07:01:54.418Z,12.13
2018-05-13T07:04:22.505Z,12.50
2018-05-13T07:06:50.046Z,13.90
2018-05-13T07:09:17.588Z,12.60
2018-05-13T07:11:45.904Z,11.80
2018-05-13T07:14:25.328Z,13.00
2018-05-13T07:29:49.531Z,11.00
2018-05-13T07:32:17.760Z,10.68
2018-05-13T07:34:45.291Z,10.70
2018-05-13T07:37:25.972Z,9.50
2018-05-13T07:42:43.445Z,8.93
2018-05-13T07:45:10.979Z,9.00
2018-05-13T07:47:38.525Z,8.93
2018-05-13T07:50:06.427Z,8.20
2018-05-13T07:52:34.040Z,8.70
2018-05-13T07:55:01.559Z,8.60
2018-05-13T07:57:29.102Z,10.00
2018-05-13T07:59:56.627Z,9.33
2018-05-13T08:02:24.159Z,8.77
2018-05-13T08:04:51.713Z,8.83
2018-05-13T08:07:19.258Z,8.65
2018-05-13T08:09:46.819Z,9.00
2018-05-13T08:12:17.019Z,9.07
2018-05-13T08:14:44.531Z,8.27
2018-05-13T08:17:14.842Z,9.50
2018-05-13T08:19:42.350Z,11.50
2018-05-13T08:22:09.915Z,10.30
2018-05-13T08:24:37.455Z,9.00
2018-05-13T08:27:05.125Z,8.53
2018-05-13T08:29:32.646Z,9.85
2018-05-13T08:32:00.647Z,9.00
2018-05-13T08:34:28.603Z,9.37
2018-05-13T08:36:57.011Z,8.80
2018-05-13T08:39:24.551Z,8.40
2018-05-13T08:41:52.113Z,8.23
2018-05-13T08:44:19.648Z,7.85
2018-05-13T08:46:47.158Z,7.30
2018-05-13T08:49:16.492Z,8.25
2018-05-13T08:51:44.800Z,8.53
2018-05-13T08:54:12.333Z,9.50
2018-05-13T08:56:39.911Z,9.50
2018-05-13T08:59:08.537Z,9.90
2018-05-13T09:01:36.100Z,8.90
2018-05-13T09:04:03.905Z,8.33
2018-05-13T09:06:31.501Z,8.27
2018-05-13T09:08:59.170Z,7.60
2018-05-13T09:11:26.743Z,7.32
2018-05-13T09:13:54.272Z,9.27
2018-05-13T09:16:21.799Z,8.45
2018-05-13T09:18:49.420Z,7.33
2018-05-13T09:21:16.954Z,8.80
2018-05-13T09:23:44.560Z,8.17
2018-05-13T09:26:13.744Z,9.00
2018-05-13T09:28:41.295Z,8.80
2018-05-13T09:31:08.851Z,8.57
2018-05-13T09:33:36.703Z,8.20
2018-05-13T09:36:04.281Z,7.50
2018-05-13T09:38:31.888Z,6.83
2018-05-13T09:41:00.487Z,7.80
2018-05-13T09:43:28.004Z,8.30
2018-05-13T09:45:55.553Z,8.10
2018-05-13T09:48:23.139Z,9.10
2018-05-13T09:50:51.440Z,9.23
2018-05-13T09:53:20.325Z,9.80
2018-05-13T09:55:48.632Z,9.87
2018-05-13T09:58:17.838Z,8.62
2018-05-13T10:00:45.363Z,7.10
2018-05-13T10:03:24.824Z,7.03
2018-05-13T10:19:25.747Z,7.03
2018-05-13T10:21:53.250Z,9.40
2018-05-13T10:24:20.791Z,9.40
2018-05-13T10:26:48.343Z,8.87
2018-05-13T10:29:16.406Z,8.50
2018-05-13T10:31:43.927Z,8.57
2018-05-13T10:34:12.460Z,6.80
2018-05-13T10:36:40.745Z,8.90
2018-05-13T10:39:08.619Z,9.00
2018-05-13T10:41:36.881Z,11.80
2018-05-13T10:44:04.407Z,10.38
2018-05-13T10:46:31.935Z,10.60
2018-05-13T10:48:59.471Z,9.50
2018-05-13T10:51:27.765Z,7.93
2018-05-13T10:53:56.105Z,8.40
2018-05-13T10:56:23.708Z,10.18
2018-05-13T10:58:51.991Z,11.87
2018-05-13T11:01:19.550Z,11.27
2018-05-13T11:03:47.235Z,14.57
2018-05-13T11:06:15.574Z,11.55
2018-05-13T11:08:43.864Z,8.87
2018-05-13T11:11:11.402Z,7.73
2018-05-13T11:13:39.707Z,10.67
2018-05-13T11:16:07.230Z,11.77
2018-05-13T11:18:34.791Z,10.20
2018-05-13T11:21:02.317Z,9.40
2018-05-13T11:23:29.835Z,10.67
2018-05-13T11:25:57.407Z,10.50
2018-05-13T11:28:24.930Z,8.63
2018-05-13T11:30:53.252Z,10.32
2018-05-13T11:33:20.799Z,9.60
2018-05-13T11:35:48.907Z,9.60
2018-05-13T11:38:16.490Z,9.83
2018-05-13T11:40:44.051Z,11.40
2018-05-13T11:43:11.578Z,12.75
2018-05-13T11:45:39.375Z,12.00
2018-05-13T11:48:07.484Z,10.50
2018-05-13T11:50:35.003Z,11.37
2018-05-13T11:53:02.648Z,10.53
2018-05-13T11:55:30.192Z,11.50
2018-05-13T11:57:57.715Z,10.20
2018-05-13T12:00:25.239Z,9.77
2018-05-13T12:02:52.787Z,7.93
2018-05-13T12:05:20.311Z,7.65
2018-05-13T12:07:47.828Z,6.80
2018-05-13T12:10:16.855Z,7.60
2018-05-13T12:12:44.367Z,5.80
2018-05-13T12:15:12.759Z,4.70
2018-05-13T12:17:40.228Z,4.90
2018-05-13T12:20:07.735Z,5.40
2018-05-13T12:22:35.264Z,5.40
2018-05-13T12:25:03.740Z,5.40
2018-05-13T12:27:31.265Z,6.30
2018-05-13T12:29:58.779Z,6.13
2018-05-13T12:32:26.831Z,5.68
2018-05-13T12:34:54.348Z,5.70
2018-05-13T12:37:23.074Z,6.78
2018-05-13T12:39:50.627Z,5.37
2018-05-13T12:42:18.152Z,6.07
2018-05-13T12:44:46.448Z,6.20
2018-05-13T12:47:26.524Z,5.82
2018-05-13T12:53:00.771Z,5.20
2018-05-13T12:55:28.303Z,6.18
2018-05-13T12:57:55.823Z,5.17
2018-05-13T13:00:23.372Z,5.47
2018-05-13T13:02:50.896Z,4.53
2018-05-13T13:05:18.405Z,3.90
2018-05-13T13:07:46.812Z,4.00
2018-05-13T13:10:16.363Z,4.37
2018-05-13T13:12:43.875Z,4.87
2018-05-13T13:15:11.814Z,4.30
2018-05-13T13:17:39.431Z,4.70
2018-05-13T13:20:07.057Z,4.10
2018-05-13T13:22:34.522Z,4.25
2018-05-13T13:25:04.421Z,4.53
2018-05-13T13:27:32.695Z,4.10
2018-05-13T13:30:00.230Z,3.60
2018-05-13T13:32:27.760Z,3.72
2018-05-13T13:34:55.340Z,4.10
2018-05-13T13:37:23.691Z,3.90
2018-05-13T13:39:51.820Z,4.33
2018-05-13T13:42:19.367Z,4.10
2018-05-13T13:44:47.722Z,3.40
2018-05-13T13:47:15.498Z,3.30
2018-05-13T13:49:43.000Z,3.10
2018-05-13T13:52:10.542Z,3.47
2018-05-13T13:54:38.059Z,3.10
2018-05-13T13:57:05.587Z,3.77
2018-05-13T13:59:33.695Z,3.67
2018-05-13T14:02:01.266Z,3.73
2018-05-13T14:04:28.806Z,3.30
2018-05-13T14:06:56.435Z,3.50
2018-05-13T14:09:23.907Z,3.53
2018-05-13T14:11:51.442Z,3.57
2018-05-13T14:14:18.988Z,3.50
2018-05-13T14:16:46.502Z,3.15
2018-05-13T14:19:25.802Z,3.20
2018-05-13T14:24:28.448Z,3.80
2018-05-13T14:26:55.998Z,3.27
2018-05-13T14:29:23.520Z,3.50
2018-05-13T14:31:51.071Z,3.50
2018-05-13T14:34:18.595Z,4.43
2018-05-13T14:36:46.896Z,3.73
2018-05-13T14:39:27.167Z,3.85
2018-05-13T14:44:40.515Z,3.20
2018-05-13T14:47:08.043Z,3.30
2018-05-13T14:49:35.599Z,3.67
2018-05-13T14:52:03.177Z,3.27
2018-05-13T14:54:30.709Z,3.80
2018-05-13T14:56:58.244Z,3.47
2018-05-13T14:59:26.480Z,3.80
2018-05-13T15:01:53.994Z,3.20
2018-05-13T15:04:22.281Z,3.83
2018-05-13T15:06:49.827Z,3.77
2018-05-13T15:09:17.408Z,3.50
2018-05-13T15:11:45.692Z,3.33
2018-05-13T15:14:23.660Z,3.78
2018-05-13T15:16:51.195Z,4.00
2018-05-13T15:19:18.743Z,3.40
2018-05-13T15:21:46.777Z,3.97
2018-05-13T15:24:20.310Z,4.35
2018-05-13T15:33:52.863Z,3.60
2018-05-13T15:37:43.821Z,3.33
2018-05-13T15:40:12.387Z,3.93
2018-05-13T15:42:41.589Z,3.60
2018-05-13T15:45:09.830Z,4.27
2018-05-13T15:47:37.375Z,3.80
2018-05-13T15:50:04.888Z,3.97
2018-05-13T15:52:32.415Z,4.20
2018-05-13T15:55:00.830Z,4.57
2018-05-13T15:57:28.323Z,4.60
2018-05-13T15:59:55.952Z,4.53
2018-05-13T16:02:23.542Z,5.73
2018-05-13T16:04:51.131Z,6.20
2018-05-13T16:07:18.659Z,7.07
2018-05-13T16:09:46.214Z,7.70
2018-05-13T16:12:16.535Z,7.30
2018-05-13T16:14:45.351Z,7.67
2018-05-13T16:17:25.519Z,8.07
2018-05-13T16:28:48.151Z,8.47
2018-05-13T16:31:16.470Z,9.20
2018-05-13T16:33:44.007Z,8.20
2018-05-13T16:36:12.181Z,7.30
2018-05-13T16:38:39.698Z,7.93
2018-05-13T16:41:08.055Z,8.50
2018-05-13T16:43:35.627Z,7.33
2018-05-13T16:46:04.429Z,7.60
2018-05-13T16:48:32.741Z,8.00
2018-05-13T16:51:00.302Z,8.50
2018-05-13T16:53:27.823Z,8.55
2018-05-13T16:55:55.363Z,10.10
2018-05-13T16:58:23.848Z,9.27
2018-05-13T17:00:52.156Z,9.70
2018-05-13T17:03:19.687Z,9.90
2018-05-13T17:05:48.047Z,10.40
2018-05-13T17:08:16.607Z,9.70
2018-05-13T17:10:44.192Z,10.10
2018-05-13T17:13:11.791Z,10.03
2018-05-13T17:15:40.262Z,10.30
2018-05-13T17:18:08.572Z,10.77
2018-05-13T17:20:36.419Z,9.03
2018-05-13T17:23:03.933Z,10.30
2018-05-13T17:25:31.459Z,9.32
2018-05-13T17:28:00.246Z,9.67
2018-05-13T17:30:27.857Z,9.13
2018-05-13T17:32:55.427Z,9.10
2018-05-13T17:35:23.749Z,8.37
2018-05-13T17:37:52.611Z,8.60
2018-05-13T17:40:20.131Z,8.82
2018-05-13T17:42:49.032Z,7.93
2018-05-13T17:45:16.561Z,7.90
2018-05-13T17:47:44.773Z,8.87
2018-05-13T17:50:12.650Z,8.33
2018-05-13T17:52:40.187Z,9.07
2018-05-13T17:55:08.511Z,8.10
2018-05-13T17:57:36.277Z,9.10
2018-05-13T18:00:04.720Z,8.33
2018-05-13T18:02:32.255Z,8.67
2018-05-13T18:05:00.287Z,9.50
2018-05-13T18:07:27.804Z,5.80
2018-05-13T18:09:55.400Z,6.30
2018-05-13T18:12:22.988Z,8.67
2018-05-13T18:14:50.511Z,9.68
2018-05-13T18:17:18.070Z,9.20
2018-05-13T18:19:45.652Z,8.60
2018-05-13T18:22:25.794Z,8.50
2018-05-13T18:28:58.460Z,11.90
2018-05-13T18:31:26.004Z,10.57
2018-05-13T18:33:53.732Z,10.35
2018-05-13T18:36:21.300Z,7.63
2018-05-13T18:38:48.821Z,7.80
2018-05-13T18:41:16.440Z,7.10
2018-05-13T18:43:44.762Z,7.23
2018-05-13T18:46:12.299Z,7.50
2018-05-13T18:48:40.251Z,7.97
2018-05-13T18:51:09.146Z,10.30
2018-05-13T18:53:36.693Z,8.53
2018-05-13T18:56:05.020Z,7.40
2018-05-13T18:58:32.693Z,6.45
2018-05-13T19:01:00.610Z,6.20
2018-05-13T19:03:28.135Z,7.20
2018-05-13T19:05:55.680Z,6.10
2018-05-13T19:08:23.220Z,7.70
2018-05-13T19:10:50.800Z,6.20
2018-05-13T19:13:20.396Z,7.93
2018-05-13T19:15:48.092Z,8.77
2018-05-13T19:18:17.214Z,9.07
2018-05-13T19:20:45.527Z,8.43
2018-05-13T19:23:14.628Z,8.98
2018-05-13T19:25:42.178Z,9.80
2018-05-13T19:28:09.768Z,8.43
2018-05-13T19:30:37.308Z,9.30
2018-05-13T19:33:04.971Z,9.47
2018-05-13T19:35:33.614Z,9.45
2018-05-13T19:38:01.172Z,9.27
2018-05-13T19:40:28.712Z,8.33
2018-05-13T19:42:57.020Z,7.00
2018-05-13T19:45:24.653Z,6.40
2018-05-13T19:47:53.355Z,6.90
2018-05-13T19:50:21.507Z,6.03
2018-05-13T19:52:49.070Z,7.27
2018-05-13T19:55:17.347Z,8.05
2018-05-13T19:57:46.511Z,7.37
2018-05-13T20:00:15.508Z,7.62
2018-05-13T20:02:43.105Z,8.20
2018-05-13T20:05:10.643Z,8.20
2018-05-13T20:07:38.342Z,10.10
2018-05-13T20:10:05.890Z,10.83
2018-05-13T20:12:33.439Z,9.48
2018-05-13T20:15:01.771Z,11.97
2018-05-13T20:17:29.308Z,12.10
2018-05-13T20:19:57.115Z,11.07
2018-05-13T20:22:24.631Z,12.30
2018-05-13T20:24:52.160Z,10.90
2018-05-13T20:27:19.713Z,12.10
2018-05-13T20:29:47.384Z,11.53
2018-05-13T20:32:16.362Z,12.80
2018-05-13T20:34:44.683Z,11.13
2018-05-13T20:37:12.214Z,12.63
2018-05-13T20:39:40.491Z,12.50
2018-05-13T20:42:08.423Z,12.73
2018-05-13T20:44:35.941Z,13.33
2018-05-13T20:47:03.502Z,13.00
2018-05-13T20:49:31.043Z,13.80
2018-05-13T20:51:59.484Z,14.63
2018-05-13T20:54:27.042Z,13.43
2018-05-13T20:56:55.371Z,15.03
2018-05-13T20:59:22.891Z,14.57
2018-05-13T21:01:50.443Z,14.50
2018-05-13T21:04:19.298Z,14.60
2018-05-13T21:06:46.852Z,15.20
2018-05-13T21:09:25.381Z,13.55
2018-05-13T21:15:13.233Z,14.80
2018-05-13T21:17:40.747Z,14.57
2018-05-13T21:20:08.271Z,14.43
2018-05-13T21:22:36.427Z,16.50
2018-05-13T21:25:03.971Z,15.73
2018-05-13T21:27:31.504Z,15.77
2018-05-13T21:29:59.050Z,16.73
2018-05-13T21:32:26.582Z,15.95
2018-05-13T21:34:54.104Z,16.03
2018-05-13T21:37:21.646Z,16.77
2018-05-13T21:39:49.214Z,16.53
2018-05-13T21:42:16.743Z,16.97
2018-05-13T21:44:44.375Z,17.30
2018-05-13T21:47:11.903Z,17.70
2018-05-13T21:49:39.471Z,17.00
2018-05-13T21:52:07.924Z,18.17
2018-05-13T21:54:35.473Z,18.20
2018-05-13T21:57:03.001Z,17.63
2018-05-13T21:59:31.335Z,17.65
2018-05-13T22:01:58.925Z,17.07
2018-05-13T22:04:26.421Z,16.63
2018-05-13T22:06:54.531Z,18.80
2018-05-13T22:09:22.116Z,17.80
2018-05-13T22:11:49.639Z,16.27
2018-05-13T22:14:17.186Z,17.70
2018-05-13T22:16:44.726Z,21.30
2018-05-13T22:19:12.245Z,24.40
2018-05-13T22:21:39.789Z,25.90
2018-05-13T22:24:07.319Z,26.13
2018-05-13T22:26:34.856Z,27.37
2018-05-13T22:29:02.874Z,28.27
2018-05-13T22:31:30.396Z,29.60
2018-05-13T22:33:57.914Z,28.03
2018-05-13T22:36:25.494Z,24.75
2018-05-13T22:38:53.775Z,25.40
2018-05-13T22:41:21.290Z,29.10
2018-05-13T22:43:48.832Z,27.87
2018-05-13T22:46:16.504Z,29.70
2018-05-13T22:48:44.788Z,26.40
2018-05-13T22:51:12.939Z,24.47
2018-05-13T22:53:41.779Z,25.30
2018-05-13T22:56:09.303Z,27.83
2018-05-13T22:58:36.860Z,23.77
2018-05-13T23:01:04.372Z,22.30
2018-05-13T23:03:31.895Z,24.50
2018-05-13T23:06:00.210Z,23.70
2018-05-13T23:08:27.739Z,24.33
2018-05-13T23:10:55.250Z,23.77
2018-05-13T23:13:23.526Z,24.00
2018-05-13T23:15:51.060Z,22.90
2018-05-13T23:18:18.595Z,24.20
2018-05-13T23:20:46.907Z,25.00
2018-05-13T23:23:15.530Z,28.67
2018-05-13T23:25:43.063Z,22.97
2018-05-13T23:28:10.606Z,27.40
2018-05-13T23:30:38.128Z,26.63
2018-05-13T23:33:05.644Z,27.70
2018-05-13T23:35:33.646Z,26.98
2018-05-13T23:38:01.179Z,25.50
2018-05-13T23:40:28.709Z,26.90
2018-05-13T23:42:56.566Z,27.77
2018-05-13T23:45:24.103Z,28.40
2018-05-13T23:47:51.861Z,26.37
2018-05-13T23:50:20.299Z,26.80
2018-05-13T23:52:47.845Z,28.13
2018-05-13T23:55:17.619Z,26.35
2018-05-13T23:57:45.639Z,25.03
